createdAt,value
2022-10-29T00:00:49.183Z,13.27
2022-10-29T00:03:36.155Z,17.43
2022-10-29T00:06:08.835Z,14.23
2022-10-29T00:08:37.360Z,13.30
2022-10-29T00:11:15.006Z,10.40
2022-10-29T00:13:42.418Z,9.63
2022-10-29T00:16:17.525Z,9.17
2022-10-29T00:18:44.289Z,8.87
2022-10-29T00:21:13.634Z,8.57
2022-10-29T00:23:39.806Z,7.97
2022-10-29T00:26:06.366Z,8.13
2022-10-29T00:28:33.201Z,7.40
2022-10-29T00:31:08.183Z,7.63
2022-10-29T00:33:34.483Z,7.93
2022-10-29T00:36:06.361Z,8.17
2022-10-29T00:38:34.428Z,7.07
2022-10-29T00:41:01.869Z,7.53
2022-10-29T00:43:28.501Z,7.27
2022-10-29T00:46:06.673Z,8.33
2022-10-29T00:48:40.230Z,6.83
2022-10-29T00:51:10.943Z,7.17
2022-10-29T00:53:42.102Z,7.10
2022-10-29T00:56:08.750Z,7.70
2022-10-29T00:58:35.002Z,6.80
2022-10-29T01:01:01.875Z,7.03
2022-10-29T01:03:28.319Z,7.47
2022-10-29T01:05:54.770Z,7.47
2022-10-29T01:08:21.416Z,7.77
2022-10-29T01:11:16.978Z,9.23
2022-10-29T01:14:15.278Z,11.10
2022-10-29T01:17:04.190Z,8.20
2022-10-29T01:19:47.196Z,7.27
2022-10-29T01:22:42.254Z,7.00
2022-10-29T01:25:21.566Z,6.33
2022-10-29T01:27:55.107Z,5.77
2022-10-29T01:30:55.604Z,5.70
2022-10-29T01:33:40.528Z,5.07
2022-10-29T01:36:36.770Z,5.40
2022-10-29T01:39:02.999Z,5.13
2022-10-29T01:41:48.780Z,4.93
2022-10-29T01:44:18.054Z,5.00
2022-10-29T01:46:51.587Z,5.00
2022-10-29T01:49:23.918Z,5.03
2022-10-29T01:51:51.794Z,4.90
2022-10-29T01:54:18.144Z,4.93
2022-10-29T01:56:53.400Z,5.47
2022-10-29T01:59:35.236Z,4.20
2022-10-29T02:02:55.988Z,4.80
2022-10-29T02:05:50.953Z,4.53
2022-10-29T02:08:46.194Z,4.90
2022-10-29T02:11:26.251Z,5.50
2022-10-29T02:13:58.405Z,4.60
2022-10-29T02:16:27.190Z,4.50
2022-10-29T02:18:53.437Z,4.63
2022-10-29T02:21:20.035Z,4.50
2022-10-29T02:23:47.076Z,4.30
2022-10-29T02:26:13.871Z,4.67
2022-10-29T02:28:40.198Z,4.50
2022-10-29T02:31:06.315Z,4.67
2022-10-29T02:33:32.435Z,4.10
2022-10-29T02:35:58.976Z,3.87
2022-10-29T02:38:25.068Z,4.10
2022-10-29T02:40:51.172Z,3.80
2022-10-29T02:45:50.069Z,3.67
2022-10-29T02:48:16.197Z,4.33
2022-10-29T02:50:42.446Z,4.27
2022-10-29T02:53:08.827Z,4.50
2022-10-29T02:55:34.909Z,4.30
2022-10-29T02:58:01.262Z,4.40
2022-10-29T03:00:27.400Z,3.80
2022-10-29T03:02:53.878Z,4.53
2022-10-29T03:05:20.511Z,4.47
2022-10-29T03:07:46.627Z,4.27
2022-10-29T03:10:12.690Z,4.77
2022-10-29T03:12:39.058Z,4.07
2022-10-29T03:15:05.635Z,3.77
2022-10-29T03:17:31.812Z,4.40
2022-10-29T03:19:58.160Z,4.13
2022-10-29T03:22:24.457Z,4.53
2022-10-29T03:24:50.553Z,4.50
2022-10-29T03:27:16.847Z,4.23
2022-10-29T03:29:43.449Z,4.20
2022-10-29T03:32:09.731Z,3.93
2022-10-29T03:34:36.041Z,4.93
2022-10-29T03:37:02.412Z,4.53
2022-10-29T03:39:28.495Z,4.40
2022-10-29T03:41:54.869Z,4.30
2022-10-29T03:44:20.977Z,4.30
2022-10-29T03:46:47.059Z,4.37
2022-10-29T03:49:13.422Z,3.70
2022-10-29T03:51:39.543Z,5.77
2022-10-29T03:54:06.080Z,4.13
2022-10-29T03:56:32.235Z,4.07
2022-10-29T03:58:58.624Z,4.37
2022-10-29T04:01:24.998Z,4.47
2022-10-29T04:03:51.377Z,4.43
2022-10-29T04:06:17.703Z,4.60
2022-10-29T04:08:45.028Z,4.20
2022-10-29T04:11:12.683Z,4.67
2022-10-29T04:13:39.450Z,4.80
2022-10-29T04:16:05.770Z,4.27
2022-10-29T04:18:32.124Z,3.73
2022-10-29T04:28:17.473Z,4.07
2022-10-29T04:29:21.735Z,4.17
2022-10-29T04:31:48.557Z,4.10
2022-10-29T04:34:15.237Z,4.77
2022-10-29T04:36:41.647Z,4.23
2022-10-29T04:39:08.007Z,4.00
2022-10-29T04:41:34.401Z,4.53
2022-10-29T04:44:01.573Z,4.23
2022-10-29T04:46:28.119Z,4.27
2022-10-29T04:48:54.448Z,4.57
2022-10-29T04:51:24.214Z,4.53
2022-10-29T04:53:50.663Z,4.80
2022-10-29T04:56:17.685Z,4.73
2022-10-29T04:58:44.351Z,5.23
2022-10-29T05:01:11.174Z,4.57
2022-10-29T05:03:37.749Z,4.07
2022-10-29T05:06:05.515Z,3.93
2022-10-29T05:08:32.365Z,4.80
2022-10-29T05:11:02.618Z,4.43
2022-10-29T05:13:29.003Z,4.60
2022-10-29T05:15:55.649Z,4.03
2022-10-29T05:18:22.116Z,4.27
2022-10-29T05:20:52.257Z,4.77
2022-10-29T05:23:18.550Z,5.40
2022-10-29T05:25:48.372Z,4.67
2022-10-29T05:28:20.376Z,4.57
2022-10-29T05:30:48.670Z,4.73
2022-10-29T05:33:19.600Z,4.87
2022-10-29T05:35:46.171Z,4.53
2022-10-29T05:38:13.601Z,4.13
2022-10-29T05:40:41.851Z,4.67
2022-10-29T05:43:08.035Z,4.83
2022-10-29T05:45:34.375Z,4.33
2022-10-29T05:48:03.263Z,4.97
2022-10-29T05:50:31.449Z,5.13
2022-10-29T05:53:00.180Z,4.53
2022-10-29T05:55:28.326Z,4.67
2022-10-29T05:57:58.692Z,4.43
2022-10-29T06:00:27.699Z,4.47
2022-10-29T06:02:55.469Z,4.43
2022-10-29T06:05:22.923Z,5.17
2022-10-29T06:07:58.049Z,5.00
2022-10-29T06:10:27.580Z,4.53
2022-10-29T06:12:54.269Z,4.60
2022-10-29T06:15:21.183Z,4.37
2022-10-29T06:17:48.141Z,4.40
2022-10-29T06:20:16.381Z,5.37
2022-10-29T06:22:42.773Z,4.43
2022-10-29T06:25:09.490Z,5.00
2022-10-29T06:27:36.570Z,4.20
2022-10-29T06:30:04.361Z,4.93
2022-10-29T06:32:30.831Z,4.83
2022-10-29T06:34:57.355Z,5.13
2022-10-29T06:37:23.551Z,5.27
2022-10-29T06:39:50.401Z,5.27
2022-10-29T06:42:16.754Z,4.80
2022-10-29T06:44:43.171Z,5.43
2022-10-29T06:47:09.509Z,5.30
2022-10-29T06:49:36.041Z,4.70
2022-10-29T06:52:02.337Z,4.47
2022-10-29T06:54:29.120Z,5.07
2022-10-29T06:56:55.890Z,4.33
2022-10-29T06:59:23.770Z,5.60
2022-10-29T07:01:50.127Z,5.20
2022-10-29T07:04:17.837Z,5.17
2022-10-29T07:06:44.831Z,4.70
2022-10-29T07:09:11.192Z,4.73
2022-10-29T07:11:37.860Z,4.70
2022-10-29T07:14:09.123Z,4.80
2022-10-29T07:16:36.510Z,5.20
2022-10-29T07:19:04.487Z,4.90
2022-10-29T07:21:30.929Z,5.60
2022-10-29T07:23:57.667Z,5.30
2022-10-29T07:26:24.100Z,5.17
2022-10-29T07:28:53.771Z,4.47
2022-10-29T07:31:20.438Z,4.97
2022-10-29T07:33:47.239Z,4.80
2022-10-29T07:36:13.601Z,4.87
2022-10-29T07:38:40.168Z,5.47
2022-10-29T07:41:06.885Z,4.93
2022-10-29T07:43:35.907Z,4.87
2022-10-29T07:46:02.258Z,4.83
2022-10-29T07:48:28.818Z,4.90
2022-10-29T07:50:58.548Z,4.40
2022-10-29T07:53:25.532Z,4.87
2022-10-29T07:55:55.292Z,5.07
2022-10-29T07:58:23.110Z,4.80
2022-10-29T08:00:49.872Z,4.63
2022-10-29T08:03:16.306Z,5.17
2022-10-29T08:05:43.234Z,4.97
2022-10-29T08:08:09.795Z,5.03
2022-10-29T08:10:36.393Z,4.73
2022-10-29T08:13:05.811Z,5.10
2022-10-29T08:15:34.201Z,5.20
2022-10-29T08:18:01.087Z,4.90
2022-10-29T08:20:28.819Z,4.97
2022-10-29T08:22:58.927Z,4.43
2022-10-29T08:25:26.600Z,4.77
2022-10-29T08:28:00.747Z,5.60
2022-10-29T08:30:28.320Z,4.93
2022-10-29T08:32:54.926Z,5.20
2022-10-29T08:35:22.109Z,4.60
2022-10-29T08:37:48.867Z,4.87
2022-10-29T08:40:30.311Z,5.03
2022-10-29T08:43:32.155Z,5.33
2022-10-29T08:45:58.982Z,5.00
2022-10-29T08:48:45.814Z,5.47
2022-10-29T08:51:12.840Z,5.93
2022-10-29T08:53:45.382Z,5.60
2022-10-29T08:56:35.901Z,5.70
2022-10-29T08:59:08.502Z,5.13
2022-10-29T09:01:35.377Z,5.90
2022-10-29T09:04:03.233Z,5.53
2022-10-29T09:06:48.528Z,6.10
2022-10-29T09:09:18.146Z,5.03
2022-10-29T09:11:57.185Z,5.63
2022-10-29T09:14:45.920Z,5.23
2022-10-29T09:17:40.028Z,6.27
2022-10-29T09:20:31.361Z,5.43
2022-10-29T09:23:17.075Z,5.80
2022-10-29T09:25:49.576Z,5.63
2022-10-29T09:28:29.198Z,6.00
2022-10-29T09:31:21.457Z,5.53
2022-10-29T09:33:51.684Z,5.70
2022-10-29T09:36:21.598Z,4.87
2022-10-29T09:42:38.007Z,5.93
2022-10-29T09:45:10.600Z,5.67
2022-10-29T09:48:24.592Z,5.63
2022-10-29T09:51:09.282Z,6.07
2022-10-29T09:53:36.190Z,5.27
2022-10-29T09:56:07.034Z,4.77
2022-10-29T09:58:38.840Z,5.47
2022-10-29T10:01:05.529Z,5.30
2022-10-29T10:03:44.880Z,5.13
2022-10-29T10:06:14.814Z,4.70
2022-10-29T10:09:02.338Z,6.10
2022-10-29T10:11:38.394Z,5.27
2022-10-29T10:14:30.581Z,5.70
2022-10-29T10:16:58.440Z,5.43
2022-10-29T10:19:27.772Z,5.10
2022-10-29T10:22:04.341Z,5.53
2022-10-29T10:24:35.870Z,4.28
2022-10-29T10:27:25.443Z,5.37
2022-10-29T10:30:11.763Z,4.93
2022-10-29T10:32:38.358Z,4.70
2022-10-29T10:35:24.481Z,4.80
2022-10-29T10:37:50.872Z,5.80
2022-10-29T10:40:24.252Z,5.13
2022-10-29T10:42:55.058Z,4.70
2022-10-29T10:45:32.826Z,4.10
2022-10-29T10:48:00.411Z,4.00
2022-10-29T10:50:30.608Z,4.47
2022-10-29T10:52:58.997Z,5.00
2022-10-29T10:55:34.549Z,5.50
2022-10-29T10:58:09.152Z,4.63
2022-10-29T11:00:40.525Z,3.67
2022-10-29T11:03:19.820Z,4.67
2022-10-29T11:05:51.308Z,4.75
2022-10-29T11:08:30.136Z,4.10
2022-10-29T11:11:04.378Z,4.50
2022-10-29T11:13:32.960Z,4.30
2022-10-29T11:16:27.374Z,4.43
2022-10-29T11:19:07.757Z,4.13
2022-10-29T11:21:43.296Z,4.23
2022-10-29T11:24:44.203Z,3.85
2022-10-29T11:27:23.044Z,3.87
2022-10-29T11:30:09.060Z,4.15
2022-10-29T11:32:43.137Z,5.37
2022-10-29T11:35:18.137Z,4.38
2022-10-29T11:37:50.307Z,4.27
2022-10-29T11:40:22.993Z,4.18
2022-10-29T11:42:49.859Z,3.35
2022-10-29T11:45:53.708Z,3.50
2022-10-29T11:51:24.472Z,3.63
2022-10-29T11:54:01.953Z,5.10
2022-10-29T11:57:03.985Z,4.55
2022-10-29T11:59:57.805Z,4.63
2022-10-29T12:02:48.582Z,4.53
2022-10-29T12:05:30.581Z,3.63
2022-10-29T12:08:06.613Z,3.80
2022-10-29T12:11:02.695Z,8.05
2022-10-29T12:13:55.807Z,3.87
2022-10-29T12:16:28.211Z,3.70
2022-10-29T12:19:02.437Z,4.15
2022-10-29T12:21:38.051Z,3.60
2022-10-29T12:24:45.629Z,3.97
2022-10-29T12:27:24.976Z,4.10
2022-10-29T12:30:02.406Z,4.07
2022-10-29T12:32:41.012Z,4.07
2022-10-29T12:35:16.040Z,4.00
2022-10-29T12:38:19.018Z,3.80
2022-10-29T12:40:51.632Z,3.38
2022-10-29T12:43:30.767Z,4.03
2022-10-29T12:46:24.776Z,3.83
2022-10-29T12:48:57.182Z,4.40
2022-10-29T12:51:32.566Z,6.65
2022-10-29T12:54:19.527Z,6.25
2022-10-29T12:56:49.381Z,5.20
2022-10-29T12:59:36.512Z,3.70
2022-10-29T13:02:26.002Z,3.40
2022-10-29T13:05:10.986Z,3.50
2022-10-29T13:07:46.597Z,3.50
2022-10-29T13:10:22.088Z,4.55
2022-10-29T13:12:57.556Z,3.85
2022-10-29T13:15:30.160Z,4.00
2022-10-29T13:18:07.253Z,5.13
2022-10-29T13:20:40.320Z,6.18
2022-10-29T13:23:21.953Z,7.82
2022-10-29T13:25:50.444Z,4.05
2022-10-29T13:28:17.014Z,3.90
2022-10-29T13:30:51.930Z,3.58
2022-10-29T13:33:21.522Z,3.83
2022-10-29T13:35:55.165Z,4.03
2022-10-29T13:38:46.997Z,4.32
2022-10-29T13:41:25.047Z,5.35
2022-10-29T13:43:56.872Z,4.28
2022-10-29T13:46:46.915Z,4.50
2022-10-29T13:49:31.923Z,3.20
2022-10-29T13:52:25.437Z,4.22
2022-10-29T13:55:00.576Z,4.90
2022-10-29T13:57:36.232Z,5.65
2022-10-29T14:00:14.991Z,4.87
2022-10-29T14:03:03.751Z,4.32
2022-10-29T14:05:34.528Z,5.13
2022-10-29T14:08:11.027Z,5.78
2022-10-29T14:10:40.295Z,6.93
2022-10-29T14:13:22.008Z,5.97
2022-10-29T14:16:28.299Z,5.65
2022-10-29T14:18:55.015Z,5.43
2022-10-29T14:21:30.052Z,4.78
2022-10-29T14:24:00.460Z,5.18
2022-10-29T14:26:29.957Z,4.10
2022-10-29T14:28:56.333Z,3.80
2022-10-29T14:31:24.353Z,3.45
2022-10-29T14:33:57.694Z,3.55
2022-10-29T14:36:35.525Z,3.33
2022-10-29T14:39:23.815Z,4.00
2022-10-29T14:41:54.106Z,3.25
2022-10-29T14:44:27.166Z,4.95
2022-10-29T14:47:07.808Z,3.85
2022-10-29T14:49:39.648Z,3.33
2022-10-29T14:52:15.627Z,4.50
2022-10-29T14:54:47.776Z,4.22
2022-10-29T14:57:17.250Z,4.40
2022-10-29T14:59:53.578Z,3.70
2022-10-29T15:02:37.580Z,3.23
2022-10-29T15:05:19.726Z,2.90
2022-10-29T15:07:46.108Z,3.50
2022-10-29T15:10:20.208Z,2.97
2022-10-29T15:12:48.115Z,3.53
2022-10-29T15:15:17.225Z,3.47
2022-10-29T15:17:52.189Z,3.37
2022-10-29T15:20:41.349Z,3.10
2022-10-29T15:23:22.983Z,3.83
2022-10-29T15:25:51.724Z,5.03
2022-10-29T15:28:29.837Z,7.27
2022-10-29T15:31:00.134Z,8.70
2022-10-29T15:33:28.985Z,43.43
2022-10-29T15:35:58.971Z,23.13
2022-10-29T15:38:34.919Z,14.13
2022-10-29T15:41:34.726Z,15.60
2022-10-29T15:44:01.245Z,26.90
2022-10-29T15:46:34.352Z,21.83
2022-10-29T15:49:00.936Z,17.87
2022-10-29T15:51:28.682Z,17.27
2022-10-29T15:53:56.705Z,18.40
2022-10-29T15:56:24.029Z,13.80
2022-10-29T15:58:51.766Z,8.97
2022-10-29T16:01:18.055Z,8.10
2022-10-29T16:03:44.512Z,8.27
2022-10-29T16:06:15.511Z,7.93
2022-10-29T16:08:56.987Z,8.27
2022-10-29T16:11:23.644Z,8.40
2022-10-29T16:13:54.545Z,8.33
2022-10-29T16:16:22.888Z,7.97
2022-10-29T16:18:49.529Z,8.77
2022-10-29T16:21:19.999Z,11.33
2022-10-29T16:23:47.182Z,14.20
2022-10-29T16:26:16.476Z,13.83
2022-10-29T16:28:43.315Z,12.50
2022-10-29T16:31:19.694Z,12.43
2022-10-29T16:33:50.736Z,12.83
2022-10-29T16:36:17.204Z,12.67
2022-10-29T16:38:46.585Z,17.77
2022-10-29T16:41:14.721Z,18.53
2022-10-29T16:43:42.457Z,23.70
2022-10-29T16:46:09.728Z,31.77
2022-10-29T16:48:36.109Z,29.67
2022-10-29T16:51:04.084Z,30.77
2022-10-29T16:53:30.336Z,28.43
2022-10-29T16:55:56.559Z,23.80
2022-10-29T16:58:23.742Z,23.60
2022-10-29T17:00:50.067Z,20.47
2022-10-29T17:03:17.485Z,28.27
2022-10-29T17:05:45.578Z,19.93
2022-10-29T17:08:12.448Z,16.90
2022-10-29T17:10:39.911Z,18.53
2022-10-29T17:13:08.273Z,22.90
2022-10-29T17:15:34.571Z,27.13
2022-10-29T17:18:01.601Z,33.60
2022-10-29T17:20:30.674Z,33.17
2022-10-29T17:22:57.291Z,26.23
2022-10-29T17:25:23.557Z,22.73
2022-10-29T17:27:49.709Z,23.97
2022-10-29T17:30:16.281Z,28.67
2022-10-29T17:32:42.551Z,27.70
2022-10-29T17:35:09.127Z,23.30
2022-10-29T17:37:35.889Z,24.70
2022-10-29T17:40:06.824Z,21.43
2022-10-29T17:42:34.698Z,18.30
2022-10-29T17:45:01.406Z,19.97
2022-10-29T17:47:29.305Z,18.57
2022-10-29T17:49:56.189Z,19.23
2022-10-29T17:52:22.716Z,14.70
2022-10-29T17:54:49.011Z,11.27
2022-10-29T17:57:15.355Z,9.10
2022-10-29T17:59:41.962Z,16.37
2022-10-29T18:02:10.526Z,15.57
2022-10-29T18:04:37.331Z,14.80
2022-10-29T18:07:03.467Z,15.13
2022-10-29T18:09:30.068Z,15.37
2022-10-29T18:11:56.345Z,13.33
2022-10-29T18:14:22.699Z,8.53
2022-10-29T18:16:49.795Z,10.80
2022-10-29T18:19:16.663Z,11.03
2022-10-29T18:21:43.327Z,11.40
2022-10-29T18:24:10.584Z,9.67
2022-10-29T18:26:37.489Z,12.30
2022-10-29T18:29:09.996Z,9.83
2022-10-29T18:31:39.382Z,10.60
2022-10-29T18:34:06.894Z,11.07
2022-10-29T18:36:35.045Z,11.97
2022-10-29T18:39:01.754Z,13.83
2022-10-29T18:41:28.862Z,14.07
2022-10-29T18:43:56.495Z,13.77
2022-10-29T18:46:22.978Z,14.20
2022-10-29T18:48:50.325Z,13.43
2022-10-29T18:51:19.498Z,15.17
2022-10-29T18:53:46.232Z,19.33
2022-10-29T18:56:15.121Z,16.97
2022-10-29T18:58:42.312Z,16.43
2022-10-29T19:01:12.567Z,12.03
2022-10-29T19:03:39.595Z,12.03
2022-10-29T19:06:08.807Z,12.70
2022-10-29T19:08:37.179Z,12.80
2022-10-29T19:11:06.160Z,13.07
2022-10-29T19:13:33.436Z,13.63
2022-10-29T19:16:05.353Z,9.23
2022-10-29T19:18:33.240Z,8.87
2022-10-29T19:21:08.825Z,8.17
2022-10-29T19:23:35.621Z,9.50
2022-10-29T19:26:10.762Z,12.70
2022-10-29T19:28:40.938Z,12.73
2022-10-29T19:31:13.839Z,16.20
2022-10-29T19:33:40.665Z,15.90
2022-10-29T19:36:08.838Z,13.70
2022-10-29T19:38:35.666Z,14.63
2022-10-29T19:41:02.492Z,14.83
2022-10-29T19:43:29.601Z,15.47
2022-10-29T19:45:56.344Z,14.27
2022-10-29T19:48:23.440Z,14.93
2022-10-29T19:50:55.421Z,14.47
2022-10-29T19:53:24.220Z,14.57
2022-10-29T19:55:54.148Z,18.93
2022-10-29T19:58:22.768Z,23.73
2022-10-29T20:00:49.721Z,25.27
2022-10-29T20:03:16.962Z,26.67
2022-10-29T20:05:45.021Z,29.93
2022-10-29T20:08:15.846Z,25.20
2022-10-29T20:10:43.578Z,23.03
2022-10-29T20:13:10.094Z,20.33
2022-10-29T20:15:38.576Z,20.60
2022-10-29T20:18:05.425Z,18.47
2022-10-29T20:20:32.217Z,16.67
2022-10-29T20:22:59.051Z,16.33
2022-10-29T20:25:25.673Z,14.80
2022-10-29T20:27:52.087Z,13.50
2022-10-29T20:30:18.568Z,13.10
2022-10-29T20:32:45.001Z,14.87
2022-10-29T20:35:45.368Z,14.87
2022-10-29T20:38:22.471Z,14.27
2022-10-29T20:40:50.263Z,14.30
2022-10-29T20:43:16.478Z,13.87
2022-10-29T20:45:42.788Z,14.73
2022-10-29T20:48:09.344Z,16.43
2022-10-29T20:50:35.551Z,15.33
2022-10-29T20:53:05.242Z,13.57
2022-10-29T20:55:33.145Z,13.83
2022-10-29T20:57:59.856Z,14.33
2022-10-29T21:00:26.570Z,13.47
2022-10-29T21:02:52.772Z,14.17
2022-10-29T21:05:19.250Z,13.57
2022-10-29T21:07:45.757Z,13.97
2022-10-29T21:10:12.218Z,12.50
2022-10-29T21:12:38.623Z,13.13
2022-10-29T21:15:05.452Z,12.50
2022-10-29T21:17:32.935Z,12.70
2022-10-29T21:19:59.598Z,12.27
2022-10-29T21:22:26.016Z,13.07
2022-10-29T21:24:52.192Z,12.90
2022-10-29T21:27:18.502Z,11.90
2022-10-29T21:29:44.629Z,11.30
2022-10-29T21:32:12.973Z,11.57
2022-10-29T21:34:43.380Z,11.20
2022-10-29T21:37:09.940Z,11.70
2022-10-29T21:39:36.284Z,11.03
2022-10-29T21:42:02.823Z,10.50
2022-10-29T21:44:29.078Z,11.70
2022-10-29T21:46:55.611Z,10.63
2022-10-29T21:49:22.092Z,10.70
2022-10-29T21:51:49.262Z,9.83
2022-10-29T21:54:15.949Z,14.00
2022-10-29T21:56:42.088Z,14.50
2022-10-29T21:59:08.267Z,14.70
2022-10-29T22:01:34.743Z,14.93
2022-10-29T22:04:01.030Z,14.50
2022-10-29T22:06:27.747Z,18.97
2022-10-29T22:08:58.710Z,16.10
2022-10-29T22:11:26.434Z,16.03
2022-10-29T22:13:53.884Z,15.63
2022-10-29T22:16:21.424Z,24.40
2022-10-29T22:18:49.168Z,18.23
2022-10-29T22:21:20.738Z,16.67
2022-10-29T22:23:49.799Z,17.37
2022-10-29T22:26:17.947Z,15.70
2022-10-29T22:28:46.357Z,16.13
2022-10-29T22:31:14.007Z,19.87
2022-10-29T22:33:43.969Z,17.10
2022-10-29T22:36:16.349Z,18.30
2022-10-29T22:38:43.436Z,15.07
2022-10-29T22:41:12.269Z,16.33
2022-10-29T22:43:38.497Z,17.37
2022-10-29T22:46:06.363Z,15.60
2022-10-29T22:48:32.922Z,17.27
2022-10-29T22:51:01.354Z,16.37
2022-10-29T22:53:28.079Z,14.97
2022-10-29T22:55:54.472Z,16.10
2022-10-29T22:58:21.167Z,15.90
2022-10-29T23:00:47.675Z,15.73
2022-10-29T23:03:13.884Z,15.17
2022-10-29T23:05:40.108Z,15.47
2022-10-29T23:08:06.420Z,14.47
2022-10-29T23:10:32.595Z,14.17
2022-10-29T23:12:58.663Z,14.17
2022-10-29T23:15:24.999Z,14.57
2022-10-29T23:17:54.444Z,15.17
2022-10-29T23:20:20.740Z,15.10
2022-10-29T23:22:48.050Z,14.57
2022-10-29T23:25:14.257Z,14.47
2022-10-29T23:27:40.333Z,15.73
2022-10-29T23:30:07.221Z,19.90
2022-10-29T23:32:33.447Z,16.23
2022-10-29T23:35:00.259Z,16.27
2022-10-29T23:37:27.550Z,15.17
2022-10-29T23:39:53.706Z,15.47
2022-10-29T23:42:19.864Z,14.90
2022-10-29T23:44:46.198Z,15.37
2022-10-29T23:47:12.297Z,14.60
2022-10-29T23:49:38.408Z,15.60
2022-10-29T23:52:04.710Z,15.70
2022-10-29T23:54:31.006Z,15.17
2022-10-29T23:56:57.220Z,15.83
2022-10-29T23:59:23.520Z,14.23
